createdAt,value
2018-02-05T00:02:12.142Z,98.80
2018-02-05T00:04:39.658Z,98.80
2018-02-05T00:07:07.150Z,99.00
2018-02-05T00:09:34.662Z,98.90
2018-02-05T00:12:02.163Z,98.80
2018-02-05T00:14:29.653Z,98.80
2018-02-05T00:16:57.938Z,99.00
2018-02-05T00:19:26.197Z,98.90
2018-02-05T00:21:53.714Z,98.80
2018-02-05T00:24:21.201Z,99.10
2018-02-05T00:26:48.694Z,98.90
2018-02-05T00:29:16.210Z,99.00
2018-02-05T00:31:43.704Z,98.80
2018-02-05T00:34:11.981Z,98.70
2018-02-05T00:36:40.246Z,98.50
2018-02-05T00:39:08.507Z,98.40
2018-02-05T00:41:36.021Z,98.30
2018-02-05T00:44:03.514Z,98.10
2018-02-05T00:46:31.027Z,98.30
2018-02-05T00:48:58.521Z,98.40
2018-02-05T00:51:26.040Z,98.60
2018-02-05T00:53:53.540Z,98.70
2018-02-05T00:56:21.035Z,98.50
2018-02-05T00:58:49.312Z,98.70
2018-02-05T01:01:17.570Z,98.70
2018-02-05T01:03:45.092Z,98.70
2018-02-05T01:06:12.602Z,98.40
2018-02-05T01:08:40.862Z,98.70
2018-02-05T01:11:08.374Z,98.70
2018-02-05T01:13:35.866Z,98.80
2018-02-05T01:16:03.394Z,98.40
2018-02-05T01:18:30.890Z,98.40
2018-02-05T01:20:58.383Z,98.30
2018-02-05T01:23:25.902Z,98.30
2018-02-05T01:25:53.389Z,98.10
2018-02-05T01:28:21.675Z,97.80
2018-02-05T01:30:49.173Z,97.80
2018-02-05T01:33:16.670Z,97.70
2018-02-05T01:35:44.189Z,97.70
2018-02-05T01:38:11.685Z,97.90
2018-02-05T01:40:39.578Z,98.00
2018-02-05T01:43:07.131Z,98.40
2018-02-05T01:45:34.629Z,98.10
2018-02-05T01:48:02.150Z,98.20
2018-02-05T01:50:30.413Z,98.10
2018-02-05T01:52:58.698Z,98.20
2018-02-05T01:55:26.965Z,98.20
2018-02-05T01:57:55.238Z,98.20
2018-02-05T02:00:23.521Z,98.00
2018-02-05T02:02:51.785Z,98.10
2018-02-05T02:05:19.304Z,98.10
2018-02-05T02:07:46.798Z,98.20
2018-02-05T02:10:14.318Z,98.30
2018-02-05T02:12:41.813Z,98.40
2018-02-05T02:15:09.311Z,98.50
2018-02-05T02:17:36.825Z,98.50
2018-02-05T02:20:04.326Z,98.60
2018-02-05T02:22:31.846Z,98.60
2018-02-05T02:24:59.346Z,98.60
2018-02-05T02:27:26.867Z,98.50
2018-02-05T02:29:54.366Z,98.70
2018-02-05T02:32:21.861Z,98.70
2018-02-05T02:34:49.379Z,98.40
2018-02-05T02:37:16.877Z,98.60
2018-02-05T02:39:45.166Z,98.20
2018-02-05T02:42:12.665Z,98.20
2018-02-05T02:44:40.183Z,98.20
2018-02-05T02:47:07.686Z,98.20
2018-02-05T02:49:35.182Z,98.30
2018-02-05T02:52:02.701Z,98.20
2018-02-05T02:54:30.197Z,98.30
2018-02-05T02:56:57.713Z,98.30
2018-02-05T02:59:25.214Z,98.30
2018-02-05T03:01:52.734Z,98.30
2018-02-05T03:04:20.232Z,98.30
2018-02-05T03:06:47.730Z,98.20
2018-02-05T03:09:16.013Z,98.50
2018-02-05T03:11:44.282Z,98.40
2018-02-05T03:14:12.570Z,98.60
2018-02-05T03:16:40.863Z,98.70
2018-02-05T03:19:08.386Z,98.70
2018-02-05T03:21:35.885Z,98.70
2018-02-05T03:24:03.377Z,98.60
2018-02-05T03:26:30.889Z,98.50
2018-02-05T03:28:58.385Z,98.40
2018-02-05T03:31:25.901Z,98.20
2018-02-05T03:33:53.397Z,98.20
2018-02-05T03:36:20.893Z,98.20
2018-02-05T03:38:48.414Z,98.20
2018-02-05T03:41:15.905Z,98.30
2018-02-05T03:43:43.421Z,98.20
2018-02-05T03:46:10.913Z,98.30
2018-02-05T03:48:38.409Z,98.20
2018-02-05T03:51:05.929Z,98.10
2018-02-05T03:53:34.286Z,98.30
2018-02-05T03:56:01.806Z,98.30
2018-02-05T03:58:29.305Z,98.80
2018-02-05T04:00:56.801Z,98.40
2018-02-05T04:03:25.081Z,98.60
2018-02-05T04:05:53.342Z,98.60
2018-02-05T04:08:20.862Z,98.60
2018-02-05T04:10:48.352Z,98.70
2018-02-05T04:13:15.865Z,98.40
2018-02-05T04:15:43.358Z,98.40
2018-02-05T04:18:10.853Z,98.40
2018-02-05T04:20:39.141Z,98.30
2018-02-05T04:23:06.642Z,98.20
2018-02-05T04:25:34.162Z,98.50
2018-02-05T04:28:01.658Z,98.50
2018-02-05T04:30:29.153Z,98.50
2018-02-05T04:32:57.437Z,98.70
2018-02-05T04:35:25.706Z,98.40
2018-02-05T04:37:53.989Z,98.40
2018-02-05T04:40:22.244Z,98.50
2018-02-05T04:42:49.737Z,98.50
2018-02-05T04:45:17.249Z,98.50
2018-02-05T04:47:45.509Z,98.40
2018-02-05T04:50:13.026Z,98.40
2018-02-05T04:52:41.289Z,98.20
2018-02-05T04:55:09.553Z,98.30
2018-02-05T04:57:37.069Z,98.30
2018-02-05T05:00:04.557Z,98.20
2018-02-05T05:02:32.069Z,98.20
2018-02-05T05:04:59.561Z,98.20
2018-02-05T05:07:27.057Z,98.10
2018-02-05T05:09:55.342Z,98.20
2018-02-05T05:12:23.604Z,98.20
2018-02-05T05:14:51.121Z,98.20
2018-02-05T05:17:18.618Z,98.00
2018-02-05T05:19:46.109Z,97.90
2018-02-05T05:22:13.678Z,98.20
2018-02-05T05:24:41.915Z,97.90
2018-02-05T05:27:10.226Z,98.10
2018-02-05T05:29:37.721Z,97.60
2018-02-05T05:32:05.216Z,97.80
2018-02-05T05:34:33.497Z,98.00
2018-02-05T05:37:01.759Z,98.00
2018-02-05T05:39:29.273Z,98.00
2018-02-05T05:41:56.774Z,97.90
2018-02-05T05:44:24.269Z,97.90
2018-02-05T05:46:51.790Z,97.80
2018-02-05T05:49:19.286Z,97.70
2018-02-05T05:51:46.810Z,97.80
2018-02-05T05:54:15.074Z,98.20
2018-02-05T05:56:42.569Z,97.90
2018-02-05T05:59:10.081Z,97.90
2018-02-05T06:01:37.572Z,97.90
2018-02-05T06:04:05.854Z,98.00
2018-02-05T06:06:34.117Z,98.00
2018-02-05T06:09:02.377Z,98.10
2018-02-05T06:11:29.897Z,98.10
2018-02-05T06:13:57.402Z,97.90
2018-02-05T06:16:24.922Z,97.90
2018-02-05T06:18:52.419Z,97.80
2018-02-05T06:21:19.915Z,97.70
2018-02-05T06:23:47.434Z,97.80
2018-02-05T06:26:14.933Z,97.70
2018-02-05T06:28:42.457Z,97.70
2018-02-05T06:31:09.958Z,97.60
2018-02-05T06:33:37.458Z,98.00
2018-02-05T06:36:06.485Z,97.50
2018-02-05T06:38:34.749Z,97.50
2018-02-05T06:41:03.033Z,97.50
2018-02-05T06:43:31.293Z,97.40
2018-02-05T06:45:58.790Z,97.40
2018-02-05T06:48:26.310Z,97.30
2018-02-05T06:51:05.618Z,97.20
2018-02-05T06:53:44.977Z,97.20
2018-02-05T06:56:27.353Z,97.20
2018-02-05T06:58:54.866Z,97.30
2018-02-05T07:01:23.126Z,98.10
2018-02-05T07:03:51.409Z,98.30
2018-02-05T07:06:19.731Z,97.70
2018-02-05T07:08:47.224Z,97.70
2018-02-05T07:11:14.742Z,97.70
2018-02-05T07:13:42.237Z,97.70
2018-02-05T07:16:09.759Z,97.50
2018-02-05T07:18:37.253Z,97.50
2018-02-05T07:21:05.525Z,97.60
2018-02-05T07:23:33.037Z,97.20
2018-02-05T07:26:00.533Z,97.60
2018-02-05T07:28:28.050Z,97.20
2018-02-05T07:30:55.546Z,97.30
2018-02-05T07:33:23.041Z,97.30
2018-02-05T07:35:51.321Z,97.30
2018-02-05T07:38:19.581Z,97.20
2018-02-05T07:40:47.097Z,97.20
2018-02-05T07:43:14.585Z,97.10
2018-02-05T07:45:42.085Z,97.00
2018-02-05T07:48:10.361Z,96.70
2018-02-05T07:50:38.621Z,96.60
2018-02-05T07:53:06.909Z,96.50
2018-02-05T07:55:35.169Z,96.50
2018-02-05T07:58:02.666Z,96.40
2018-02-05T08:00:30.184Z,96.30
2018-02-05T08:02:58.470Z,96.10
2018-02-05T08:05:26.750Z,95.90
2018-02-05T08:07:55.012Z,96.20
2018-02-05T08:10:23.294Z,96.20
2018-02-05T08:12:50.809Z,96.20
2018-02-05T08:15:18.306Z,96.00
2018-02-05T08:17:45.825Z,95.60
2018-02-05T08:20:13.321Z,95.60
2018-02-05T08:22:40.821Z,95.30
2018-02-05T08:25:08.333Z,95.00
2018-02-05T08:27:35.829Z,95.10
2018-02-05T08:30:03.349Z,95.10
2018-02-05T08:32:30.846Z,94.80
2018-02-05T08:34:58.393Z,94.90
2018-02-05T08:37:25.873Z,94.80
2018-02-05T08:39:53.369Z,94.70
2018-02-05T08:42:20.893Z,94.30
2018-02-05T08:44:48.398Z,94.20
2018-02-05T08:47:15.894Z,94.00
2018-02-05T08:49:43.405Z,94.20
2018-02-05T08:52:10.890Z,93.90
2018-02-05T08:54:39.165Z,93.60
2018-02-05T08:57:07.429Z,93.20
2018-02-05T08:59:34.922Z,93.20
2018-02-05T09:02:02.435Z,93.00
2018-02-05T09:04:29.932Z,92.70
2018-02-05T09:06:57.491Z,92.50
2018-02-05T09:09:25.736Z,91.00
2018-02-05T09:11:53.221Z,91.00
2018-02-05T09:14:21.502Z,80.90
2018-02-05T09:16:48.997Z,80.90
2018-02-05T09:19:16.513Z,80.10
2018-02-05T09:21:44.773Z,75.00
2018-02-05T09:24:12.286Z,75.00
2018-02-05T09:26:39.772Z,74.20
2018-02-05T09:29:07.257Z,73.10
2018-02-05T09:31:35.538Z,75.30
2018-02-05T09:34:03.793Z,78.50
2018-02-05T09:36:31.301Z,78.40
2018-02-05T09:38:58.793Z,80.60
2018-02-05T09:41:26.301Z,80.80
2018-02-05T09:43:53.797Z,82.80
2018-02-05T09:46:21.290Z,83.30
2018-02-05T09:48:48.806Z,84.50
2018-02-05T09:51:16.293Z,83.00
2018-02-05T09:53:43.810Z,84.40
2018-02-05T09:56:11.302Z,84.80
2018-02-05T09:58:38.789Z,89.50
2018-02-05T10:01:07.070Z,88.90
2018-02-05T10:03:35.325Z,86.90
2018-02-05T10:06:02.844Z,86.80
2018-02-05T10:08:30.334Z,86.50
2018-02-05T10:10:57.849Z,86.80
2018-02-05T10:13:25.337Z,86.70
2018-02-05T10:15:52.845Z,85.90
2018-02-05T10:18:21.124Z,84.10
2018-02-05T10:20:48.613Z,84.00
2018-02-05T10:23:16.126Z,81.60
2018-02-05T10:25:44.382Z,74.00
2018-02-05T10:28:11.893Z,73.90
2018-02-05T10:30:39.385Z,66.70
2018-02-05T10:33:06.873Z,59.40
2018-02-05T10:35:35.153Z,47.50
2018-02-05T10:38:03.418Z,43.50
2018-02-05T10:40:31.706Z,42.50
2018-02-05T10:43:00.010Z,40.90
2018-02-05T10:45:28.271Z,38.20
2018-02-05T10:47:55.765Z,38.10
2018-02-05T10:50:23.262Z,35.90
2018-02-05T10:52:50.782Z,34.20
2018-02-05T10:55:18.277Z,32.70
2018-02-05T10:57:45.798Z,32.10
2018-02-05T11:00:13.294Z,31.70
2018-02-05T11:02:40.818Z,30.40
2018-02-05T11:05:08.314Z,29.40
2018-02-05T11:07:36.073Z,28.30
2018-02-05T11:10:03.565Z,27.70
2018-02-05T11:12:31.066Z,27.50
2018-02-05T11:14:58.581Z,26.90
2018-02-05T11:17:26.081Z,26.10
2018-02-05T11:19:53.597Z,26.20
2018-02-05T11:22:21.093Z,26.00
2018-02-05T11:24:48.586Z,25.90
2018-02-05T11:27:16.106Z,26.00
2018-02-05T11:29:43.602Z,26.60
2018-02-05T11:32:11.117Z,26.20
2018-02-05T11:34:38.618Z,27.10
2018-02-05T11:37:06.930Z,28.90
2018-02-05T11:39:34.426Z,28.90
2018-02-05T11:42:01.947Z,29.00
2018-02-05T11:44:29.470Z,29.20
2018-02-05T11:46:56.970Z,30.00
2018-02-05T11:49:24.490Z,29.80
2018-02-05T11:51:51.988Z,30.60
2018-02-05T11:54:19.501Z,30.70
2018-02-05T11:56:46.992Z,31.80
2018-02-05T11:59:14.490Z,32.00
2018-02-05T12:01:42.005Z,31.90
2018-02-05T12:04:09.503Z,32.80
2018-02-05T12:06:37.037Z,32.30
2018-02-05T12:09:04.540Z,33.40
2018-02-05T12:11:32.042Z,33.00
2018-02-05T12:13:59.560Z,33.70
2018-02-05T12:16:27.053Z,33.90
2018-02-05T12:18:55.329Z,34.80
2018-02-05T12:21:23.593Z,33.80
2018-02-05T12:23:51.873Z,33.90
2018-02-05T12:26:20.129Z,34.70
2018-02-05T12:28:47.621Z,34.60
2018-02-05T12:31:15.137Z,35.30
2018-02-05T12:33:42.634Z,36.10
2018-02-05T12:36:10.149Z,36.80
2018-02-05T12:38:37.645Z,36.80
2018-02-05T12:41:05.925Z,38.40
2018-02-05T12:43:34.186Z,39.40
2018-02-05T12:46:02.454Z,40.50
2018-02-05T12:48:29.974Z,39.90
2018-02-05T12:50:57.465Z,40.00
2018-02-05T12:53:24.988Z,39.70
2018-02-05T12:55:52.485Z,40.30
2018-02-05T12:58:20.010Z,40.70
2018-02-05T13:03:51.893Z,41.10
2018-02-05T13:06:22.308Z,42.10
2018-02-05T13:08:49.833Z,42.10
2018-02-05T13:11:18.097Z,45.40
2018-02-05T13:13:46.353Z,45.40
2018-02-05T13:16:13.870Z,45.00
2018-02-05T13:18:41.366Z,44.60
2018-02-05T13:21:08.878Z,44.70
2018-02-05T13:23:36.381Z,44.00
2018-02-05T13:26:03.926Z,43.80
2018-02-05T13:28:31.421Z,43.20
2018-02-05T13:30:59.706Z,44.00
2018-02-05T13:33:27.960Z,44.60
2018-02-05T13:35:55.477Z,44.50
2018-02-05T13:38:22.974Z,45.80
2018-02-05T13:40:50.469Z,45.50
2018-02-05T13:43:18.753Z,46.00
2018-02-05T13:45:46.245Z,46.00
2018-02-05T13:48:13.757Z,46.00
2018-02-05T13:50:42.018Z,47.30
2018-02-05T13:53:09.533Z,47.30
2018-02-05T13:55:37.025Z,48.20
2018-02-05T13:58:04.522Z,47.40
2018-02-05T14:00:32.045Z,46.50
2018-02-05T14:02:59.546Z,47.10
2018-02-05T14:05:27.061Z,47.10
2018-02-05T14:07:54.545Z,48.00
2018-02-05T14:10:22.826Z,48.50
2018-02-05T14:12:50.318Z,48.50
2018-02-05T14:15:17.805Z,49.10
2018-02-05T14:17:45.326Z,48.50
2018-02-05T14:20:12.813Z,48.50
2018-02-05T14:22:40.322Z,48.90
2018-02-05T14:25:07.817Z,49.90
2018-02-05T14:27:35.342Z,50.80
2018-02-05T14:30:02.830Z,50.60
2018-02-05T14:32:30.341Z,51.80
2018-02-05T14:34:58.593Z,51.90
2018-02-05T14:37:26.077Z,51.90
2018-02-05T14:39:54.353Z,53.90
2018-02-05T14:42:22.601Z,55.00
2018-02-05T14:44:50.117Z,54.90
2018-02-05T14:47:17.609Z,57.40
2018-02-05T14:49:45.117Z,58.60
2018-02-05T14:52:12.601Z,59.20
2018-02-05T14:54:40.109Z,60.80
2018-02-05T14:57:08.362Z,63.90
2018-02-05T14:59:35.845Z,63.90
2018-02-05T15:02:04.133Z,66.30
2018-02-05T15:04:32.394Z,67.30
2018-02-05T15:07:00.674Z,69.10
2018-02-05T15:09:28.933Z,69.70
2018-02-05T15:11:56.446Z,69.70
2018-02-05T15:14:23.941Z,69.90
2018-02-05T15:16:51.457Z,70.80
2018-02-05T15:19:18.947Z,70.90
2018-02-05T15:21:46.437Z,72.20
2018-02-05T15:24:13.954Z,74.10
2018-02-05T15:26:41.441Z,74.20
2018-02-05T15:29:08.953Z,75.90
2018-02-05T15:31:36.437Z,76.60
2018-02-05T15:34:03.946Z,77.80
2018-02-05T15:36:32.201Z,78.10
2018-02-05T15:38:59.713Z,78.10
2018-02-05T15:41:27.202Z,78.90
2018-02-05T15:43:54.694Z,79.40
2018-02-05T15:46:22.969Z,80.00
2018-02-05T15:48:51.226Z,80.40
2018-02-05T15:51:18.742Z,80.30
2018-02-05T15:53:46.237Z,81.00
2018-02-05T15:56:13.758Z,81.30
2018-02-05T15:58:41.253Z,82.10
2018-02-05T16:01:08.766Z,82.20
2018-02-05T16:03:36.257Z,82.30
2018-02-05T16:06:03.749Z,82.30
2018-02-05T16:08:32.033Z,83.30
2018-02-05T16:11:00.301Z,83.80
2018-02-05T16:13:28.577Z,84.10
2018-02-05T16:15:56.828Z,84.40
2018-02-05T16:18:24.339Z,84.40
2018-02-05T16:20:51.831Z,84.60
2018-02-05T16:23:19.346Z,85.20
2018-02-05T16:25:46.842Z,84.80
2018-02-05T16:28:14.341Z,85.40
2018-02-05T16:30:42.621Z,85.80
2018-02-05T16:33:10.874Z,85.90
2018-02-05T16:35:38.393Z,85.80
2018-02-05T16:38:05.886Z,86.60
2018-02-05T16:40:33.401Z,90.20
2018-02-05T16:43:00.894Z,87.40
2018-02-05T16:45:28.413Z,86.50
2018-02-05T16:47:55.906Z,86.40
2018-02-05T16:50:23.397Z,86.80
2018-02-05T16:52:51.677Z,87.30
2018-02-05T16:55:19.937Z,86.70
2018-02-05T16:57:47.453Z,86.60
2018-02-05T17:00:14.945Z,87.10
2018-02-05T17:02:42.462Z,87.70
2018-02-05T17:05:09.953Z,88.10
2018-02-05T17:07:37.467Z,88.40
2018-02-05T17:10:04.978Z,88.40
2018-02-05T17:12:32.471Z,88.70
2018-02-05T17:15:00.757Z,88.90
2018-02-05T17:17:28.249Z,88.70
2018-02-05T17:19:55.766Z,88.90
2018-02-05T17:22:24.026Z,89.50
2018-02-05T17:24:52.301Z,89.40
2018-02-05T17:27:19.797Z,90.00
2018-02-05T17:29:47.311Z,90.00
2018-02-05T17:32:14.806Z,89.90
2018-02-05T17:34:42.313Z,90.00
2018-02-05T17:37:09.821Z,90.00
2018-02-05T17:39:37.315Z,90.10
2018-02-05T17:42:04.825Z,90.30
2018-02-05T17:44:33.082Z,90.60
2018-02-05T17:47:00.598Z,90.60
2018-02-05T17:49:28.089Z,90.70
2018-02-05T17:51:55.605Z,90.60
2018-02-05T17:54:23.097Z,90.60
2018-02-05T17:56:50.589Z,90.70
2018-02-05T17:59:18.876Z,90.90
2018-02-05T18:01:46.405Z,90.80
2018-02-05T18:04:13.917Z,90.90
2018-02-05T18:06:41.418Z,91.10
2018-02-05T18:09:08.938Z,90.90
2018-02-05T18:11:36.429Z,90.80
2018-02-05T18:14:03.925Z,90.80
2018-02-05T18:16:31.445Z,90.90
2018-02-05T18:18:58.937Z,90.90
2018-02-05T18:21:27.220Z,90.70
2018-02-05T18:23:54.717Z,90.70
2018-02-05T18:26:22.234Z,90.90
2018-02-05T18:28:49.735Z,90.90
2018-02-05T18:31:17.253Z,90.90
2018-02-05T18:33:44.749Z,91.00
2018-02-05T18:36:12.246Z,91.00
2018-02-05T18:38:39.758Z,90.90
2018-02-05T18:41:07.253Z,91.60
2018-02-05T18:43:34.770Z,91.20
2018-02-05T18:46:02.271Z,91.10
2018-02-05T18:48:29.787Z,91.00
2018-02-05T18:50:57.285Z,91.10
2018-02-05T18:53:24.814Z,91.10
2018-02-05T18:55:52.310Z,91.00
2018-02-05T18:58:19.805Z,91.10
2018-02-05T19:00:52.921Z,91.40
2018-02-05T19:03:20.420Z,91.00
2018-02-05T19:05:47.938Z,91.10
2018-02-05T19:08:15.432Z,90.90
2018-02-05T19:10:42.954Z,91.10
2018-02-05T19:13:10.454Z,91.10
2018-02-05T19:15:38.737Z,91.20
2018-02-05T19:18:06.997Z,91.20
2018-02-05T19:20:34.489Z,91.20
2018-02-05T19:23:02.008Z,91.10
2018-02-05T19:25:29.501Z,91.10
2018-02-05T19:27:57.023Z,91.30
2018-02-05T19:30:24.527Z,91.40
2018-02-05T19:32:52.053Z,91.40
2018-02-05T19:35:19.550Z,91.40
2018-02-05T19:37:47.041Z,91.50
2018-02-05T19:40:14.555Z,91.50
2018-02-05T19:42:42.049Z,91.50
2018-02-05T19:45:09.573Z,91.50
2018-02-05T19:47:37.069Z,91.60
2018-02-05T19:50:04.590Z,91.40
2018-02-05T19:52:32.085Z,91.50
2018-02-05T19:54:59.605Z,91.50
2018-02-05T19:57:27.097Z,91.60
2018-02-05T19:59:54.595Z,91.70
2018-02-05T20:02:22.882Z,91.60
2018-02-05T20:04:51.147Z,91.60
2018-02-05T20:07:18.665Z,91.60
2018-02-05T20:09:46.162Z,91.60
2018-02-05T20:12:13.682Z,91.60
2018-02-05T20:14:41.319Z,92.00
2018-02-05T20:17:08.849Z,91.80
2018-02-05T20:19:37.118Z,91.80
2018-02-05T20:22:04.641Z,91.80
2018-02-05T20:24:32.153Z,91.90
2018-02-05T20:27:00.416Z,92.10
2018-02-05T20:29:28.697Z,93.90
2018-02-05T20:31:56.953Z,93.00
2018-02-05T20:34:24.474Z,93.00
2018-02-05T20:36:51.965Z,92.60
2018-02-05T20:39:19.466Z,92.50
2018-02-05T20:41:46.987Z,92.40
2018-02-05T20:44:14.486Z,92.50
2018-02-05T20:46:42.003Z,92.50
2018-02-05T20:49:09.498Z,92.60
2018-02-05T20:51:37.010Z,92.70
2018-02-05T20:54:04.513Z,92.80
2018-02-05T20:56:32.014Z,92.80
2018-02-05T20:58:59.538Z,92.90
2018-02-05T21:01:27.038Z,92.90
2018-02-05T21:03:54.549Z,92.90
2018-02-05T21:06:22.041Z,92.90
2018-02-05T21:08:49.553Z,93.00
2018-02-05T21:11:17.814Z,93.10
2018-02-05T21:13:45.333Z,93.00
2018-02-05T21:16:12.824Z,93.00
2018-02-05T21:18:40.322Z,93.00
2018-02-05T21:21:07.841Z,93.00
2018-02-05T21:23:35.345Z,93.00
2018-02-05T21:26:02.861Z,93.10
2018-02-05T21:28:30.358Z,93.00
2018-02-05T21:30:57.877Z,93.00
2018-02-05T21:33:25.422Z,93.10
2018-02-05T21:35:52.970Z,93.00
2018-02-05T21:38:20.469Z,93.10
2018-02-05T21:40:48.733Z,93.10
2018-02-05T21:43:16.254Z,93.00
2018-02-05T21:45:43.745Z,93.10
2018-02-05T21:48:11.263Z,93.20
2018-02-05T21:50:38.757Z,93.30
2018-02-05T21:53:06.276Z,93.20
2018-02-05T21:55:33.770Z,93.40
2018-02-05T21:58:01.291Z,93.50
2018-02-05T22:00:28.789Z,93.60
2018-02-05T22:02:56.301Z,93.50
2018-02-05T22:05:23.813Z,93.50
2018-02-05T22:07:51.310Z,93.60
2018-02-05T22:10:18.830Z,93.70
2018-02-05T22:12:46.330Z,93.70
2018-02-05T22:15:13.851Z,93.70
2018-02-05T22:17:41.353Z,93.90
2018-02-05T22:20:08.865Z,93.90
2018-02-05T22:22:36.385Z,93.90
2018-02-05T22:25:03.877Z,94.00
2018-02-05T22:27:31.393Z,94.10
2018-02-05T22:29:58.885Z,94.10
2018-02-05T22:32:26.409Z,94.20
2018-02-05T22:34:53.905Z,94.20
2018-02-05T22:37:21.397Z,94.30
2018-02-05T22:39:49.686Z,94.40
2018-02-05T22:42:17.181Z,94.40
2018-02-05T22:44:46.698Z,94.50
2018-02-05T22:47:14.193Z,94.50
2018-02-05T22:49:42.453Z,94.60
2018-02-05T22:52:09.969Z,94.60
2018-02-05T22:54:37.466Z,94.70
2018-02-05T22:57:04.982Z,94.70
2018-02-05T22:59:32.480Z,94.80
2018-02-05T23:01:59.969Z,94.80
2018-02-05T23:04:27.489Z,94.70
2018-02-05T23:06:54.985Z,94.70
2018-02-05T23:09:22.497Z,94.70
2018-02-05T23:11:49.993Z,94.80
2018-02-05T23:14:18.277Z,94.80
2018-02-05T23:16:45.773Z,94.80
2018-02-05T23:19:13.272Z,94.90
2018-02-05T23:21:41.557Z,94.80
2018-02-05T23:24:09.822Z,94.90
2018-02-05T23:26:37.341Z,94.80
2018-02-05T23:29:04.839Z,94.90
2018-02-05T23:31:33.131Z,95.00
2018-02-05T23:34:01.393Z,95.00
2018-02-05T23:36:28.894Z,95.00
2018-02-05T23:38:56.409Z,95.10
2018-02-05T23:41:23.905Z,95.10
2018-02-05T23:43:51.426Z,95.10
2018-02-05T23:46:19.694Z,95.30
2018-02-05T23:48:47.214Z,95.30
2018-02-05T23:51:14.709Z,95.20
2018-02-05T23:53:42.234Z,95.10
2018-02-05T23:56:09.733Z,95.20
2018-02-05T23:58:37.229Z,95.20
